Time;durP1;ratioP1;P1;durP2;ratioP2;P2;SDS_P1;SDS_P2;PMS_P1;PMS_P2;Temp;Humidity;BMP_temperature;BMP_pressure;BME280_temperature;BME280_humidity;BME280_pressure;Samples;Min_cycle;Max_cycle;Signal;HPM_P1;HPM_P2
2020/12/31 00:00:06;;;;;;;;;2.00;2.00;;;;;;;;4947206;28;11593;-80
2020/12/31 00:02:32;;;;;;;;;2.00;2.00;;;;;;;;4949610;28;11636;-81
2020/12/31 00:04:59;;;;;;;;;1.25;1.25;;;;;;;;4952207;28;11667;-80
2020/12/31 00:07:26;;;;;;;;;3.25;2.00;;;;;;;;4950461;28;11538;-80
2020/12/31 00:09:53;;;;;;;;;1.00;1.00;;;;;;;;4948774;28;11708;-80
2020/12/31 00:12:21;;;;;;;;;3.00;3.00;;;;;;;;4927929;28;11641;-80
2020/12/31 00:14:48;;;;;;;;;7.75;5.50;;;;;;;;4950226;28;12323;-79
2020/12/31 00:17:14;;;;;;;;;2.00;2.00;;;;;;;;4947414;28;11683;-80
2020/12/31 00:19:41;;;;;;;;;3.50;1.00;;;;;;;;4944183;28;11616;-79
2020/12/31 00:22:08;;;;;;;;;2.00;2.00;;;;;;;;4947089;28;11568;-79
2020/12/31 00:24:35;;;;;;;;;5.25;3.50;;;;;;;;4956805;28;11614;-79
2020/12/31 00:27:02;;;;;;;;;2.00;2.00;;;;;;;;4946485;28;11533;-79
2020/12/31 00:29:30;;;;;;;;;1.00;1.00;;;;;;;;4947837;28;12351;-79
2020/12/31 00:31:57;;;;;;;;;2.00;2.00;;;;;;;;4926158;28;11611;-79
2020/12/31 00:34:23;;;;;;;;;1.00;1.00;;;;;;;;4949013;28;11576;-78
2020/12/31 00:36:50;;;;;;;;;1.00;1.00;;;;;;;;4949659;28;11564;-77
2020/12/31 00:39:17;;;;;;;;;0.00;0.00;;;;;;;;4950241;28;11540;-79
2020/12/31 00:41:44;;;;;;;;;2.50;2.50;;;;;;;;4945517;28;11640;-77
2020/12/31 00:44:11;;;;;;;;;1.00;1.00;;;;;;;;4944121;28;11557;-78
2020/12/31 00:46:38;;;;;;;;;1.00;1.00;;;;;;;;4945649;28;11554;-78
2020/12/31 00:49:05;;;;;;;;;1.00;1.00;;;;;;;;4947024;28;11573;-78
2020/12/31 00:51:32;;;;;;;;;1.25;1.25;;;;;;;;4927633;29;11563;-80
2020/12/31 00:53:59;;;;;;;;;1.75;1.75;;;;;;;;4941580;28;11559;-79
2020/12/31 00:56:25;;;;;;;;;1.50;1.00;;;;;;;;4947106;28;12370;-79
2020/12/31 00:58:53;;;;;;;;;2.00;2.00;;;;;;;;4936802;28;11580;-79
2020/12/31 01:01:20;;;;;;;;;1.00;1.00;;;;;;;;4932427;28;11523;-79
2020/12/31 01:03:48;;;;;;;;;5.75;3.25;;;;;;;;4940939;28;11562;-77
2020/12/31 01:06:15;;;;;;;;;1.50;1.50;;;;;;;;4949442;28;11558;-80
2020/12/31 01:08:42;;;;;;;;;1.50;1.50;;;;;;;;4944739;28;11623;-80
2020/12/31 01:20:34;;;;;;;;;1.75;1.75;;;;;;;;4853567;29;11535;-80
2020/12/31 01:23:01;;;;;;;;;1.50;1.00;;;;;;;;4890516;29;12356;-79
2020/12/31 01:25:28;;;;;;;;;2.00;2.00;;;;;;;;4922880;28;11638;-79
2020/12/31 01:27:55;;;;;;;;;1.25;1.25;;;;;;;;4945544;28;11592;-79
2020/12/31 01:30:22;;;;;;;;;4.00;1.00;;;;;;;;4925429;28;14492;-79
2020/12/31 01:32:49;;;;;;;;;1.00;1.00;;;;;;;;4950372;28;11609;-80
2020/12/31 01:35:16;;;;;;;;;1.00;1.00;;;;;;;;4944854;28;11542;-78
2020/12/31 01:37:43;;;;;;;;;1.00;1.00;;;;;;;;4946766;28;11569;-80
2020/12/31 01:40:10;;;;;;;;;5.00;2.00;;;;;;;;4922237;29;11515;-80
2020/12/31 01:42:39;;;;;;;;;1.00;1.00;;;;;;;;4931921;29;11608;-80
2020/12/31 01:45:06;;;;;;;;;2.00;2.00;;;;;;;;4942641;28;12304;-80
2020/12/31 01:47:33;;;;;;;;;3.00;3.00;;;;;;;;4943635;28;11521;-80
2020/12/31 01:50:00;;;;;;;;;1.50;1.50;;;;;;;;4936624;28;11611;-80
2020/12/31 01:52:28;;;;;;;;;2.00;2.00;;;;;;;;4950383;28;11577;-80
2020/12/31 01:54:56;;;;;;;;;2.00;2.00;;;;;;;;4951007;28;11557;-80
2020/12/31 01:57:23;;;;;;;;;3.50;3.50;;;;;;;;4950723;28;11582;-80
2020/12/31 01:59:50;;;;;;;;;1.50;1.50;;;;;;;;4951937;28;11479;-81
2020/12/31 02:02:17;;;;;;;;;2.00;2.00;;;;;;;;4948846;28;11487;-81
2020/12/31 02:04:45;;;;;;;;;2.00;2.00;;;;;;;;4958272;28;11532;-82
2020/12/31 02:07:11;;;;;;;;;2.00;2.00;;;;;;;;4916076;28;11516;-82
2020/12/31 02:09:38;;;;;;;;;2.00;2.00;;;;;;;;4951994;28;11505;-82
2020/12/31 02:12:06;;;;;;;;;1.50;1.50;;;;;;;;4953052;28;11531;-83
2020/12/31 02:14:33;;;;;;;;;1.00;1.00;;;;;;;;4953426;28;11544;-79
2020/12/31 02:17:00;;;;;;;;;2.00;2.00;;;;;;;;4952555;28;11537;-79
2020/12/31 02:19:27;;;;;;;;;4.25;3.00;;;;;;;;4953474;28;11512;-79
2020/12/31 02:21:55;;;;;;;;;4.25;4.00;;;;;;;;4950837;28;11468;-80
2020/12/31 02:24:22;;;;;;;;;4.00;4.00;;;;;;;;4952310;28;11531;-80
2020/12/31 02:26:50;;;;;;;;;3.50;3.50;;;;;;;;4947597;28;11594;-79
2020/12/31 02:29:18;;;;;;;;;4.00;4.00;;;;;;;;4956078;28;11474;-79
2020/12/31 02:31:47;;;;;;;;;0.00;0.00;;;;;;;;4951010;28;11493;-79
2020/12/31 02:34:14;;;;;;;;;5.25;4.00;;;;;;;;4951031;28;11581;-79
2020/12/31 02:36:41;;;;;;;;;2.00;2.00;;;;;;;;4953570;28;11490;-79
2020/12/31 02:39:10;;;;;;;;;4.00;4.00;;;;;;;;4954780;28;11538;-79
2020/12/31 02:41:37;;;;;;;;;4.00;4.00;;;;;;;;4950729;28;12014;-79
2020/12/31 02:44:04;;;;;;;;;2.00;2.00;;;;;;;;4945749;28;11515;-80
2020/12/31 02:46:31;;;;;;;;;2.00;2.00;;;;;;;;4954187;28;11493;-80
2020/12/31 02:48:58;;;;;;;;;2.50;2.50;;;;;;;;4950374;28;12288;-79
2020/12/31 02:51:25;;;;;;;;;1.75;1.75;;;;;;;;4949408;28;11486;-79
2020/12/31 02:53:52;;;;;;;;;4.00;4.00;;;;;;;;4947056;28;11643;-79
2020/12/31 02:56:21;;;;;;;;;2.00;2.00;;;;;;;;4958630;28;11493;-79
2020/12/31 02:58:49;;;;;;;;;83.75;52.25;;;;;;;;4951586;28;11556;-79
2020/12/31 03:01:17;;;;;;;;;3.00;3.00;;;;;;;;4944173;28;11545;-79
2020/12/31 03:03:44;;;;;;;;;3.00;3.00;;;;;;;;4926060;29;11685;-78
2020/12/31 03:06:11;;;;;;;;;2.00;2.00;;;;;;;;4944220;28;11646;-79
2020/12/31 03:08:39;;;;;;;;;8.00;4.00;;;;;;;;4946366;28;11457;-80
2020/12/31 03:11:08;;;;;;;;;3.50;3.50;;;;;;;;4931045;28;11543;-79
2020/12/31 03:13:36;;;;;;;;;0.00;0.00;;;;;;;;4948461;28;11519;-79
2020/12/31 03:16:02;;;;;;;;;2.00;2.00;;;;;;;;4946377;28;11469;-79
2020/12/31 03:18:29;;;;;;;;;1.75;1.75;;;;;;;;4948623;28;11537;-77
2020/12/31 03:20:56;;;;;;;;;2.00;2.00;;;;;;;;4913882;28;12311;-78
2020/12/31 03:23:23;;;;;;;;;2.00;2.00;;;;;;;;4929980;28;11495;-79
2020/12/31 03:25:50;;;;;;;;;2.00;2.00;;;;;;;;4953369;28;11502;-79
2020/12/31 03:28:17;;;;;;;;;22.25;19.75;;;;;;;;4946609;28;11515;-79
2020/12/31 03:30:46;;;;;;;;;2.50;1.25;;;;;;;;4928245;28;11633;-80
2020/12/31 03:33:13;;;;;;;;;2.75;2.00;;;;;;;;4954819;28;11585;-78
2020/12/31 03:35:42;;;;;;;;;4.00;1.25;;;;;;;;4935160;28;11538;-77
2020/12/31 03:38:09;;;;;;;;;2.00;2.00;;;;;;;;4938278;28;11508;-78
2020/12/31 03:40:36;;;;;;;;;22.50;18.00;;;;;;;;4954870;28;11554;-79
2020/12/31 03:43:04;;;;;;;;;2.00;2.00;;;;;;;;4949954;28;11469;-79
2020/12/31 03:45:31;;;;;;;;;4.00;4.00;;;;;;;;4953846;28;11476;-81
2020/12/31 03:47:59;;;;;;;;;4.50;4.50;;;;;;;;4947733;28;11482;-80
2020/12/31 03:50:26;;;;;;;;;4.50;2.00;;;;;;;;4938864;28;11486;-80
2020/12/31 03:52:53;;;;;;;;;3.50;3.50;;;;;;;;4947677;28;11492;-80
2020/12/31 03:55:19;;;;;;;;;2.00;2.00;;;;;;;;4946552;28;11516;-79
2020/12/31 03:57:46;;;;;;;;;3.50;3.50;;;;;;;;4947950;28;11621;-80
2020/12/31 04:00:13;;;;;;;;;4.25;4.25;;;;;;;;4952592;28;11539;-81
2020/12/31 04:02:41;;;;;;;;;4.50;4.00;;;;;;;;4936103;28;11617;-79
2020/12/31 04:05:09;;;;;;;;;4.00;2.50;;;;;;;;4910639;28;11548;-78
2020/12/31 04:07:36;;;;;;;;;4.25;4.25;;;;;;;;4947625;28;11492;-79
2020/12/31 04:10:04;;;;;;;;;2.50;2.50;;;;;;;;4953677;28;11493;-79
2020/12/31 04:12:31;;;;;;;;;4.50;4.50;;;;;;;;4945529;28;11582;-80
2020/12/31 04:14:58;;;;;;;;;5.00;4.00;;;;;;;;4946764;28;12299;-80
2020/12/31 04:17:25;;;;;;;;;4.50;4.50;;;;;;;;4949600;28;11483;-79
2020/12/31 04:19:52;;;;;;;;;3.25;3.25;;;;;;;;4941083;28;11456;-78
2020/12/31 04:22:19;;;;;;;;;4.00;4.00;;;;;;;;4945745;28;11528;-80
2020/12/31 04:24:46;;;;;;;;;6.00;5.00;;;;;;;;4946924;28;11502;-80
2020/12/31 04:27:13;;;;;;;;;5.25;5.25;;;;;;;;4939822;28;11524;-79
2020/12/31 04:29:40;;;;;;;;;6.00;4.00;;;;;;;;4947539;28;11528;-78
2020/12/31 04:32:07;;;;;;;;;110.50;71.50;;;;;;;;4943340;28;11445;-79
2020/12/31 04:34:34;;;;;;;;;7.25;5.00;;;;;;;;4928979;28;11706;-80
2020/12/31 04:37:09;;;;;;;;;4.25;4.25;;;;;;;;4941066;28;12310;-80
2020/12/31 04:39:37;;;;;;;;;8.25;8.25;;;;;;;;4932364;28;11594;-80
2020/12/31 04:42:04;;;;;;;;;11.50;8.75;;;;;;;;4946431;28;11529;-77
2020/12/31 04:44:31;;;;;;;;;4.50;4.00;;;;;;;;4951127;28;11475;-78
2020/12/31 04:46:59;;;;;;;;;6.25;5.00;;;;;;;;4944022;28;11495;-78
2020/12/31 04:49:28;;;;;;;;;2.00;2.00;;;;;;;;4946852;28;11515;-79
2020/12/31 04:51:56;;;;;;;;;4.00;3.00;;;;;;;;4946651;28;11597;-78
2020/12/31 04:54:23;;;;;;;;;2.00;2.00;;;;;;;;4948323;28;11249;-78
2020/12/31 04:56:52;;;;;;;;;2.50;2.50;;;;;;;;4948493;28;11507;-78
2020/12/31 04:59:19;;;;;;;;;5.50;4.00;;;;;;;;4944753;28;11488;-78
2020/12/31 05:01:46;;;;;;;;;71.00;53.50;;;;;;;;4944929;28;11455;-78
2020/12/31 05:04:14;;;;;;;;;4.25;4.25;;;;;;;;4945644;28;11560;-78
2020/12/31 05:06:41;;;;;;;;;4.25;4.25;;;;;;;;4942527;28;11599;-79
2020/12/31 05:09:15;;;;;;;;;2.00;2.00;;;;;;;;4941743;28;12427;-79
2020/12/31 05:11:44;;;;;;;;;4.50;4.50;;;;;;;;4934106;28;11709;-79
2020/12/31 05:14:12;;;;;;;;;4.75;4.75;;;;;;;;4937391;28;11495;-79
2020/12/31 05:16:39;;;;;;;;;3.75;3.75;;;;;;;;4953372;28;11194;-79
2020/12/31 05:19:26;;;;;;;;;5.00;5.00;;;;;;;;4927008;28;11242;-79
2020/12/31 05:22:11;;;;;;;;;5.00;5.00;;;;;;;;4944026;28;11380;-79
2020/12/31 05:24:39;;;;;;;;;5.00;5.00;;;;;;;;4955798;28;11292;-80
2020/12/31 05:27:19;;;;;;;;;4.50;4.50;;;;;;;;4953354;28;11130;-80
2020/12/31 05:29:57;;;;;;;;;4.00;4.00;;;;;;;;4951432;28;11113;-80
2020/12/31 05:32:25;;;;;;;;;3.25;3.25;;;;;;;;4942161;28;11752;-79
2020/12/31 05:34:54;;;;;;;;;5.25;5.25;;;;;;;;4952521;28;11183;-79
2020/12/31 05:37:21;;;;;;;;;5.75;3.25;;;;;;;;4947929;28;11069;-79
2020/12/31 05:40:03;;;;;;;;;7.25;5.00;;;;;;;;4946424;28;11039;-80
2020/12/31 05:42:31;;;;;;;;;5.25;5.25;;;;;;;;4944261;28;11888;-80
2020/12/31 05:45:05;;;;;;;;;7.25;5.00;;;;;;;;4947607;28;10981;-78
2020/12/31 05:47:33;;;;;;;;;5.25;5.25;;;;;;;;4946840;28;11228;-80
2020/12/31 05:50:00;;;;;;;;;10.00;8.50;;;;;;;;4952020;28;11174;-79
2020/12/31 05:52:34;;;;;;;;;9.00;9.00;;;;;;;;4930092;28;12117;-79
2020/12/31 05:55:03;;;;;;;;;6.75;5.75;;;;;;;;4951756;28;11192;-82
2020/12/31 05:57:42;;;;;;;;;3.00;3.00;;;;;;;;4943590;28;11141;-81
2020/12/31 06:00:12;;;;;;;;;3.50;3.50;;;;;;;;4940162;28;11072;-78
2020/12/31 06:02:44;;;;;;;;;1.75;1.75;;;;;;;;4939532;28;11131;-79
2020/12/31 06:05:14;;;;;;;;;5.00;5.00;;;;;;;;4945105;28;11214;-79
2020/12/31 06:07:46;;;;;;;;;5.00;4.00;;;;;;;;4948083;28;12421;-79
2020/12/31 06:10:16;;;;;;;;;9.75;9.75;;;;;;;;4947227;28;11513;-78
2020/12/31 06:12:49;;;;;;;;;7.00;7.00;;;;;;;;4955313;28;11468;-78
2020/12/31 06:15:20;;;;;;;;;16.75;16.75;;;;;;;;4940242;28;11485;-80
2020/12/31 06:17:49;;;;;;;;;5.50;5.50;;;;;;;;4943339;28;11490;-79
2020/12/31 06:20:17;;;;;;;;;16.25;16.25;;;;;;;;4944335;28;11501;-78
2020/12/31 06:23:05;;;;;;;;;5.00;5.00;;;;;;;;4945515;28;11520;-79
2020/12/31 06:25:35;;;;;;;;;6.50;6.00;;;;;;;;4945509;28;11468;-78
2020/12/31 06:28:05;;;;;;;;;10.25;8.25;;;;;;;;4943731;28;11534;-78
2020/12/31 06:30:34;;;;;;;;;9.00;7.50;;;;;;;;4947236;28;11489;-79
2020/12/31 06:33:06;;;;;;;;;1.50;1.50;;;;;;;;4948046;28;12315;-81
2020/12/31 06:35:34;;;;;;;;;5.50;2.00;;;;;;;;4941054;28;11501;-80
2020/12/31 06:38:01;;;;;;;;;5.00;5.00;;;;;;;;4933867;29;11583;-80
2020/12/31 06:40:29;;;;;;;;;4.75;2.00;;;;;;;;4946809;28;11579;-80
2020/12/31 06:43:07;;;;;;;;;1.50;1.50;;;;;;;;4947392;28;11634;-80
2020/12/31 06:45:41;;;;;;;;;1.00;1.00;;;;;;;;4945934;28;11670;-80
2020/12/31 06:48:37;;;;;;;;;1.75;1.00;;;;;;;;4947274;28;11528;-81
2020/12/31 06:51:08;;;;;;;;;2.00;2.00;;;;;;;;4941742;28;11543;-80
2020/12/31 06:53:37;;;;;;;;;1.00;1.00;;;;;;;;4946603;28;11544;-81
2020/12/31 06:56:05;;;;;;;;;4.00;1.50;;;;;;;;4947712;28;11633;-81
2020/12/31 06:58:33;;;;;;;;;2.00;2.00;;;;;;;;4945652;28;11555;-80
2020/12/31 07:01:01;;;;;;;;;5.00;2.00;;;;;;;;4926128;28;11549;-79
2020/12/31 07:03:47;;;;;;;;;8.50;6.00;;;;;;;;4939620;28;12394;-81
2020/12/31 07:06:31;;;;;;;;;3.50;3.50;;;;;;;;4931859;28;11558;-79
2020/12/31 07:09:00;;;;;;;;;4.25;4.25;;;;;;;;4946233;28;11565;-77
2020/12/31 07:11:38;;;;;;;;;12.00;12.00;;;;;;;;4944668;28;11559;-82
2020/12/31 07:14:23;;;;;;;;;6.50;6.50;;;;;;;;4942259;28;11628;-80
2020/12/31 07:17:01;;;;;;;;;21.00;17.75;;;;;;;;4954741;28;12408;-80
2020/12/31 07:19:36;;;;;;;;;5.50;4.00;;;;;;;;4946679;28;11605;-81
2020/12/31 07:22:19;;;;;;;;;9.50;4.25;;;;;;;;4948029;28;11832;-79
2020/12/31 07:24:51;;;;;;;;;11.00;7.00;;;;;;;;4938793;28;11627;-81
2020/12/31 07:27:27;;;;;;;;;6.25;4.00;;;;;;;;4929088;28;11597;-82
2020/12/31 07:30:17;;;;;;;;;7.00;7.00;;;;;;;;4921559;29;12004;-79
2020/12/31 07:33:01;;;;;;;;;53.75;41.50;;;;;;;;4924077;29;11481;-81
2020/12/31 07:35:30;;;;;;;;;30.75;29.50;;;;;;;;4926836;29;11663;-81
2020/12/31 07:37:59;;;;;;;;;48.50;45.50;;;;;;;;4942960;28;11599;-78
2020/12/31 07:40:30;;;;;;;;;28.00;28.00;;;;;;;;4946076;28;12470;-83
2020/12/31 07:42:58;;;;;;;;;14.00;11.25;;;;;;;;4949356;28;11673;-80
2020/12/31 07:45:25;;;;;;;;;14.00;14.00;;;;;;;;4950668;28;11568;-69
2020/12/31 07:47:52;;;;;;;;;42.75;38.00;;;;;;;;4928515;28;11706;-72
2020/12/31 07:50:20;;;;;;;;;14.50;14.50;;;;;;;;4934882;28;11607;-73
2020/12/31 07:52:47;;;;;;;;;9.75;6.25;;;;;;;;4952794;28;11604;-71
2020/12/31 07:55:14;;;;;;;;;8.25;8.25;;;;;;;;4950624;28;11573;-74
2020/12/31 07:57:41;;;;;;;;;11.25;8.50;;;;;;;;4929724;28;11631;-73
2020/12/31 08:00:11;;;;;;;;;16.75;11.00;;;;;;;;4947330;28;11530;-72
2020/12/31 08:02:43;;;;;;;;;5.50;5.50;;;;;;;;4945166;28;11683;-72
2020/12/31 08:05:11;;;;;;;;;14.75;14.75;;;;;;;;4951107;28;11528;-72
2020/12/31 08:07:41;;;;;;;;;11.25;11.25;;;;;;;;4932349;28;11580;-72
2020/12/31 08:10:08;;;;;;;;;9.25;9.25;;;;;;;;4944118;28;11580;-71
2020/12/31 08:12:37;;;;;;;;;4.00;4.00;;;;;;;;4947591;28;11611;-73
2020/12/31 08:15:04;;;;;;;;;4.50;4.50;;;;;;;;4943296;28;11674;-72
2020/12/31 08:17:31;;;;;;;;;9.25;8.75;;;;;;;;4921973;28;11588;-74
2020/12/31 08:19:58;;;;;;;;;9.00;9.00;;;;;;;;4945716;28;11728;-73
2020/12/31 08:22:31;;;;;;;;;8.00;8.00;;;;;;;;4936103;28;11512;-74
2020/12/31 08:25:05;;;;;;;;;11.75;9.25;;;;;;;;4939466;28;11545;-72
2020/12/31 08:27:37;;;;;;;;;5.00;5.00;;;;;;;;4941409;28;12430;-72
2020/12/31 08:30:06;;;;;;;;;4.25;4.25;;;;;;;;4937901;28;11500;-72
2020/12/31 08:32:49;;;;;;;;;4.75;4.75;;;;;;;;4947763;28;11582;-72
2020/12/31 08:35:20;;;;;;;;;7.00;7.00;;;;;;;;4950755;28;11610;-72
2020/12/31 08:37:48;;;;;;;;;4.00;4.00;;;;;;;;4945070;28;11654;-71
2020/12/31 08:40:21;;;;;;;;;5.75;5.00;;;;;;;;4946598;28;12342;-71
2020/12/31 08:42:53;;;;;;;;;8.00;8.00;;;;;;;;4944658;28;11683;-72
2020/12/31 08:45:27;;;;;;;;;6.50;6.50;;;;;;;;4949651;28;11558;-70
2020/12/31 08:48:10;;;;;;;;;11.75;11.75;;;;;;;;4937133;28;11549;-72
2020/12/31 08:50:37;;;;;;;;;10.25;8.25;;;;;;;;4945476;28;11571;-72
2020/12/31 08:53:04;;;;;;;;;8.50;8.50;;;;;;;;4951114;28;11638;-74
2020/12/31 08:55:35;;;;;;;;;11.00;9.00;;;;;;;;4953850;28;11567;-74
2020/12/31 08:58:12;;;;;;;;;8.00;7.00;;;;;;;;4947062;28;11541;-72
2020/12/31 09:00:39;;;;;;;;;13.50;10.00;;;;;;;;4927131;28;11539;-72
2020/12/31 09:03:06;;;;;;;;;11.50;7.00;;;;;;;;4941101;28;12187;-73
2020/12/31 09:05:32;;;;;;;;;11.25;11.25;;;;;;;;4945120;28;11542;-73
2020/12/31 09:08:03;;;;;;;;;9.00;9.00;;;;;;;;4950185;28;12485;-69
2020/12/31 09:10:33;;;;;;;;;18.25;13.00;;;;;;;;4944298;28;11582;-72
2020/12/31 09:13:00;;;;;;;;;8.00;8.00;;;;;;;;4944095;28;11558;-72
2020/12/31 09:15:27;;;;;;;;;7.25;7.25;;;;;;;;4949905;28;11566;-72
2020/12/31 09:17:54;;;;;;;;;4.75;4.75;;;;;;;;4943496;28;11553;-72
2020/12/31 09:20:23;;;;;;;;;7.50;7.50;;;;;;;;4947278;28;11544;-74
2020/12/31 09:22:50;;;;;;;;;13.75;11.50;;;;;;;;4948943;28;11549;-76
2020/12/31 09:25:18;;;;;;;;;8.25;7.00;;;;;;;;4945798;28;11557;-74
2020/12/31 09:27:46;;;;;;;;;4.00;4.00;;;;;;;;4952599;28;11573;-77
2020/12/31 09:30:15;;;;;;;;;15.00;12.50;;;;;;;;4947096;28;11581;-73
2020/12/31 09:32:46;;;;;;;;;9.75;9.75;;;;;;;;4946968;28;11689;-70
2020/12/31 09:35:13;;;;;;;;;10.00;9.25;;;;;;;;4945841;28;11623;-73
2020/12/31 09:37:52;;;;;;;;;4.50;4.50;;;;;;;;4944829;28;11569;-69
2020/12/31 09:40:19;;;;;;;;;6.75;6.75;;;;;;;;4946222;28;11592;-69
2020/12/31 09:42:47;;;;;;;;;14.50;11.75;;;;;;;;4944233;28;11553;-69
2020/12/31 09:45:14;;;;;;;;;9.25;6.25;;;;;;;;4955497;28;11554;-69
2020/12/31 09:47:41;;;;;;;;;11.00;9.50;;;;;;;;4946393;28;11700;-71
2020/12/31 09:50:11;;;;;;;;;7.00;7.00;;;;;;;;4945134;28;11585;-71
2020/12/31 09:52:40;;;;;;;;;16.00;13.75;;;;;;;;4944615;28;11548;-72
2020/12/31 09:55:07;;;;;;;;;12.00;11.75;;;;;;;;4947834;28;12150;-74
2020/12/31 09:57:33;;;;;;;;;8.25;8.25;;;;;;;;4957466;28;12339;-74
2020/12/31 10:00:01;;;;;;;;;14.25;13.50;;;;;;;;4945834;28;11557;-71
2020/12/31 10:02:28;;;;;;;;;25.75;17.00;;;;;;;;4944984;28;11642;-71
2020/12/31 10:04:55;;;;;;;;;21.25;18.25;;;;;;;;4949632;28;11821;-71
2020/12/31 10:07:21;;;;;;;;;26.75;20.25;;;;;;;;4956713;28;11668;-75
2020/12/31 10:09:48;;;;;;;;;19.25;12.75;;;;;;;;4954534;28;11621;-72
2020/12/31 10:12:15;;;;;;;;;21.50;19.50;;;;;;;;4948963;28;13004;-71
2020/12/31 10:14:42;;;;;;;;;20.75;14.75;;;;;;;;4956497;28;12335;-71
2020/12/31 10:17:10;;;;;;;;;15.00;15.00;;;;;;;;4948958;28;12415;-72
2020/12/31 10:19:37;;;;;;;;;21.00;17.50;;;;;;;;4949174;28;11593;-73
2020/12/31 10:22:04;;;;;;;;;57.25;43.75;;;;;;;;4947516;28;11636;-71
2020/12/31 10:24:31;;;;;;;;;19.00;17.50;;;;;;;;4948305;28;11607;-70
2020/12/31 10:26:57;;;;;;;;;23.00;19.50;;;;;;;;4951015;28;11575;-71
2020/12/31 10:29:24;;;;;;;;;15.75;15.75;;;;;;;;4947934;28;12411;-70
2020/12/31 10:31:52;;;;;;;;;21.25;15.75;;;;;;;;4939318;28;11527;-76
2020/12/31 10:34:21;;;;;;;;;12.50;12.50;;;;;;;;4918497;28;11676;-72
2020/12/31 10:36:52;;;;;;;;;12.50;11.00;;;;;;;;4937633;28;11554;-70
2020/12/31 10:39:19;;;;;;;;;15.25;11.00;;;;;;;;4951420;28;11587;-70
2020/12/31 10:41:46;;;;;;;;;13.75;12.50;;;;;;;;4948180;28;11576;-71
2020/12/31 10:44:13;;;;;;;;;29.25;27.00;;;;;;;;4947296;28;11576;-71
2020/12/31 10:46:40;;;;;;;;;16.50;15.50;;;;;;;;4948299;28;11589;-69
2020/12/31 10:49:07;;;;;;;;;20.25;16.75;;;;;;;;4953062;28;11563;-68
2020/12/31 10:51:36;;;;;;;;;17.25;16.00;;;;;;;;4948261;28;11632;-71
2020/12/31 10:54:03;;;;;;;;;28.75;28.00;;;;;;;;4956158;28;11587;-72
2020/12/31 10:56:30;;;;;;;;;22.00;17.75;;;;;;;;4941209;28;12470;-72
2020/12/31 10:58:57;;;;;;;;;35.25;27.25;;;;;;;;4951146;28;11745;-71
2020/12/31 11:01:23;;;;;;;;;19.75;17.25;;;;;;;;4948967;28;11584;-71
2020/12/31 11:03:50;;;;;;;;;14.00;14.00;;;;;;;;4948170;28;11585;-72
2020/12/31 11:06:21;;;;;;;;;16.50;11.25;;;;;;;;4949853;28;12487;-69
2020/12/31 11:08:48;;;;;;;;;26.50;22.75;;;;;;;;4953591;28;12843;-70
2020/12/31 11:11:20;;;;;;;;;23.00;14.50;;;;;;;;4956631;28;11592;-69
2020/12/31 11:13:47;;;;;;;;;17.25;17.25;;;;;;;;4946629;28;11618;-71
2020/12/31 11:16:14;;;;;;;;;25.00;22.00;;;;;;;;4953646;28;12389;-69
2020/12/31 11:18:42;;;;;;;;;24.75;24.75;;;;;;;;4946393;28;11599;-70
2020/12/31 11:21:09;;;;;;;;;9.25;8.50;;;;;;;;4949857;28;11760;-72
2020/12/31 11:23:36;;;;;;;;;16.50;11.50;;;;;;;;4948147;28;11572;-72
2020/12/31 11:26:10;;;;;;;;;16.00;13.00;;;;;;;;4947788;28;11548;-71
2020/12/31 11:28:37;;;;;;;;;12.75;12.75;;;;;;;;4952635;28;11605;-71
2020/12/31 11:31:06;;;;;;;;;15.75;13.50;;;;;;;;4945619;28;12171;-73
2020/12/31 11:33:33;;;;;;;;;15.25;15.25;;;;;;;;4950527;28;11549;-73
2020/12/31 11:36:00;;;;;;;;;20.75;20.75;;;;;;;;4946396;28;12652;-74
2020/12/31 11:38:27;;;;;;;;;15.00;15.00;;;;;;;;4950485;28;12353;-73
2020/12/31 11:40:54;;;;;;;;;17.00;15.75;;;;;;;;4944482;28;11583;-71
2020/12/31 11:43:22;;;;;;;;;16.50;12.75;;;;;;;;4947001;28;11623;-69
2020/12/31 11:45:48;;;;;;;;;9.75;9.50;;;;;;;;4945717;28;11614;-70
2020/12/31 11:48:15;;;;;;;;;12.00;12.00;;;;;;;;4951828;28;11556;-70
2020/12/31 11:50:42;;;;;;;;;15.25;11.25;;;;;;;;4946134;28;11560;-69
2020/12/31 11:53:09;;;;;;;;;18.50;18.50;;;;;;;;4947881;28;11573;-71
2020/12/31 11:55:36;;;;;;;;;15.50;11.00;;;;;;;;4951551;28;11622;-69
2020/12/31 11:58:03;;;;;;;;;20.50;20.50;;;;;;;;4951971;28;12757;-70
2020/12/31 12:00:30;;;;;;;;;17.50;15.50;;;;;;;;4947452;28;11545;-71
2020/12/31 12:02:57;;;;;;;;;8.75;8.75;;;;;;;;4945603;28;11652;-70
2020/12/31 12:05:24;;;;;;;;;10.00;7.50;;;;;;;;4946670;28;11605;-68
2020/12/31 12:07:51;;;;;;;;;16.50;15.50;;;;;;;;4954459;28;11539;-70
2020/12/31 12:10:18;;;;;;;;;11.50;11.50;;;;;;;;4952061;28;11620;-70
2020/12/31 12:12:45;;;;;;;;;4.00;4.00;;;;;;;;4946531;28;11601;-71
2020/12/31 12:15:12;;;;;;;;;9.00;6.50;;;;;;;;4946539;28;11553;-70
2020/12/31 12:17:41;;;;;;;;;13.25;13.25;;;;;;;;4935270;28;11506;-69
2020/12/31 12:20:11;;;;;;;;;17.00;17.00;;;;;;;;4947715;28;11563;-71
2020/12/31 12:22:38;;;;;;;;;17.00;17.00;;;;;;;;4952484;28;11624;-70
2020/12/31 12:25:06;;;;;;;;;8.25;8.25;;;;;;;;4960114;28;11638;-69
2020/12/31 12:27:34;;;;;;;;;16.75;16.75;;;;;;;;4946977;28;11671;-69
2020/12/31 12:30:00;;;;;;;;;19.25;15.25;;;;;;;;4947535;28;11613;-69
2020/12/31 12:32:27;;;;;;;;;15.00;12.25;;;;;;;;4946867;28;11548;-71
2020/12/31 12:34:54;;;;;;;;;21.00;17.00;;;;;;;;4948868;28;11586;-71
2020/12/31 12:37:22;;;;;;;;;25.25;23.00;;;;;;;;4955970;28;11688;-70
2020/12/31 12:39:49;;;;;;;;;33.75;33.75;;;;;;;;4948653;28;11599;-69
2020/12/31 12:42:16;;;;;;;;;28.50;27.75;;;;;;;;4954360;28;11742;-69
2020/12/31 12:44:43;;;;;;;;;31.50;25.00;;;;;;;;4948895;28;11565;-69
2020/12/31 12:47:10;;;;;;;;;15.75;15.75;;;;;;;;4928552;28;11573;-69
2020/12/31 12:49:36;;;;;;;;;25.00;18.75;;;;;;;;4951125;28;11578;-70
2020/12/31 12:52:04;;;;;;;;;19.25;19.25;;;;;;;;4946806;28;11601;-69
2020/12/31 12:54:31;;;;;;;;;18.50;18.50;;;;;;;;4952306;28;11593;-69
2020/12/31 12:56:58;;;;;;;;;22.00;20.25;;;;;;;;4956417;28;11591;-71
2020/12/31 12:59:25;;;;;;;;;12.50;12.50;;;;;;;;4949111;28;11697;-70
2020/12/31 13:01:51;;;;;;;;;13.25;13.25;;;;;;;;4950658;28;11515;-70
2020/12/31 13:04:18;;;;;;;;;34.25;26.50;;;;;;;;4942716;28;11547;-71
2020/12/31 13:06:48;;;;;;;;;18.25;15.75;;;;;;;;4952219;28;11605;-69
2020/12/31 13:09:16;;;;;;;;;18.00;15.25;;;;;;;;4946677;28;11513;-71
2020/12/31 13:11:43;;;;;;;;;28.00;19.25;;;;;;;;4950925;28;11557;-71
2020/12/31 13:14:10;;;;;;;;;17.50;17.50;;;;;;;;4948315;28;11548;-69
2020/12/31 13:16:37;;;;;;;;;11.00;9.00;;;;;;;;4945146;28;12273;-70
2020/12/31 13:19:04;;;;;;;;;11.25;8.50;;;;;;;;4950938;28;11635;-71
2020/12/31 13:21:31;;;;;;;;;16.25;12.00;;;;;;;;4958742;28;11543;-71
2020/12/31 13:23:58;;;;;;;;;10.75;10.75;;;;;;;;4947062;28;11543;-71
2020/12/31 13:26:26;;;;;;;;;17.50;16.25;;;;;;;;4952701;28;11570;-69
2020/12/31 13:28:54;;;;;;;;;26.00;24.75;;;;;;;;4944913;28;11739;-72
2020/12/31 13:31:21;;;;;;;;;15.75;13.50;;;;;;;;4943833;28;11511;-71
2020/12/31 13:33:49;;;;;;;;;19.50;18.25;;;;;;;;4942759;28;11695;-69
2020/12/31 13:36:17;;;;;;;;;64.00;52.25;;;;;;;;4950213;28;11754;-69
2020/12/31 13:38:44;;;;;;;;;29.00;21.50;;;;;;;;4941632;28;12439;-69
2020/12/31 13:41:14;;;;;;;;;16.00;15.25;;;;;;;;4946130;28;11596;-73
2020/12/31 13:43:41;;;;;;;;;20.00;18.00;;;;;;;;4949299;28;11570;-73
2020/12/31 13:46:08;;;;;;;;;13.50;11.75;;;;;;;;4938464;28;12375;-74
2020/12/31 13:48:35;;;;;;;;;19.75;16.00;;;;;;;;4939518;28;11578;-71
2020/12/31 13:51:02;;;;;;;;;26.75;26.75;;;;;;;;4942987;28;11634;-75
2020/12/31 13:53:31;;;;;;;;;17.00;17.00;;;;;;;;4943191;28;11528;-72
2020/12/31 13:55:58;;;;;;;;;20.00;20.00;;;;;;;;4907096;28;851112;-73
2020/12/31 13:58:24;;;;;;;;;13.50;9.75;;;;;;;;4942354;28;11716;-71
2020/12/31 14:00:52;;;;;;;;;23.00;20.00;;;;;;;;4939992;28;11628;-68
2020/12/31 14:03:19;;;;;;;;;51.50;42.50;;;;;;;;4942660;28;11617;-69
2020/12/31 14:05:49;;;;;;;;;20.50;18.75;;;;;;;;4950432;28;11614;-72
2020/12/31 14:08:16;;;;;;;;;34.25;26.00;;;;;;;;4951207;28;11705;-74
2020/12/31 14:10:42;;;;;;;;;9.00;8.50;;;;;;;;4944495;28;11580;-70
2020/12/31 14:13:09;;;;;;;;;49.25;38.75;;;;;;;;4942414;28;11550;-72
2020/12/31 14:15:38;;;;;;;;;18.75;18.50;;;;;;;;4942531;28;11641;-72
2020/12/31 14:18:06;;;;;;;;;28.75;28.75;;;;;;;;4928477;29;11518;-72
2020/12/31 14:20:34;;;;;;;;;28.75;27.25;;;;;;;;4945185;28;11585;-72
2020/12/31 14:23:01;;;;;;;;;13.00;12.75;;;;;;;;4940257;28;11607;-72
2020/12/31 14:25:28;;;;;;;;;40.50;37.50;;;;;;;;4923172;29;11596;-71
2020/12/31 14:27:55;;;;;;;;;33.00;31.00;;;;;;;;4940896;28;11635;-75
2020/12/31 14:30:22;;;;;;;;;19.25;12.75;;;;;;;;4924293;28;11583;-70
2020/12/31 14:32:49;;;;;;;;;40.00;39.50;;;;;;;;4941729;28;12880;-72
2020/12/31 14:35:17;;;;;;;;;16.25;14.75;;;;;;;;4941528;28;11598;-76
2020/12/31 14:37:44;;;;;;;;;13.00;13.00;;;;;;;;4923937;29;11545;-72
2020/12/31 14:40:12;;;;;;;;;17.25;15.25;;;;;;;;4938571;28;11676;-73
2020/12/31 14:42:41;;;;;;;;;12.50;12.50;;;;;;;;4949552;28;12482;-74
2020/12/31 14:45:09;;;;;;;;;19.25;18.50;;;;;;;;4934280;28;11596;-75
2020/12/31 14:47:36;;;;;;;;;17.00;13.00;;;;;;;;4945321;28;11561;-71
2020/12/31 14:50:04;;;;;;;;;29.00;21.50;;;;;;;;4943188;28;11532;-74